createdAt,value
2022-12-12T00:00:42.389Z,40.17
2022-12-12T00:03:09.218Z,41.60
2022-12-12T00:05:35.702Z,46.78
2022-12-12T00:08:02.265Z,46.95
2022-12-12T00:10:28.696Z,43.45
2022-12-12T00:12:55.071Z,42.88
2022-12-12T00:15:21.624Z,46.80
2022-12-12T00:17:47.947Z,44.35
2022-12-12T00:20:14.298Z,42.67
2022-12-12T00:22:40.870Z,41.38
2022-12-12T00:25:07.397Z,43.55
2022-12-12T00:27:34.195Z,46.13
2022-12-12T00:30:00.659Z,50.08
2022-12-12T00:32:27.009Z,46.10
2022-12-12T00:34:53.381Z,48.53
2022-12-12T00:37:19.873Z,41.65
2022-12-12T00:39:46.399Z,47.45
2022-12-12T00:42:12.735Z,46.78
2022-12-12T00:44:39.753Z,44.95
2022-12-12T00:47:06.246Z,44.78
2022-12-12T00:49:32.672Z,45.97
2022-12-12T00:51:59.008Z,46.42
2022-12-12T00:54:25.454Z,50.88
2022-12-12T00:56:51.802Z,47.42
2022-12-12T00:59:19.621Z,45.65
2022-12-12T01:01:46.932Z,43.45
2022-12-12T01:04:13.469Z,43.55
2022-12-12T01:06:40.142Z,45.90
2022-12-12T01:09:06.577Z,44.25
2022-12-12T01:11:32.992Z,44.97
2022-12-12T01:13:59.346Z,44.22
2022-12-12T01:16:26.162Z,43.65
2022-12-12T01:18:52.857Z,43.45
2022-12-12T01:21:20.186Z,47.72
2022-12-12T01:23:47.338Z,44.13
2022-12-12T01:26:20.445Z,48.60
2022-12-12T01:28:47.818Z,45.45
2022-12-12T01:31:14.783Z,48.60
2022-12-12T01:33:45.811Z,44.45
2022-12-12T01:36:18.117Z,40.53
2022-12-12T01:38:46.580Z,42.92
2022-12-12T01:41:13.507Z,42.15
2022-12-12T01:43:40.490Z,39.97
2022-12-12T01:46:24.938Z,44.92
2022-12-12T01:49:11.688Z,41.10
2022-12-12T01:51:40.059Z,44.13
2022-12-12T01:54:10.609Z,43.72
2022-12-12T01:56:39.868Z,39.75
2022-12-12T01:59:08.797Z,44.33
2022-12-12T02:01:35.862Z,40.95
2022-12-12T02:04:02.869Z,42.50
2022-12-12T02:06:29.848Z,40.22
2022-12-12T02:09:00.965Z,42.92
2022-12-12T02:11:32.315Z,39.10
2022-12-12T02:13:59.282Z,38.25
2022-12-12T02:16:42.338Z,37.42
2022-12-12T02:19:30.644Z,41.53
2022-12-12T02:22:35.501Z,40.75
2022-12-12T02:25:23.508Z,40.10
2022-12-12T02:28:05.112Z,38.50
2022-12-12T02:30:45.128Z,40.72
2022-12-12T02:33:30.701Z,43.45
2022-12-12T02:36:30.446Z,39.70
2022-12-12T02:39:22.713Z,40.08
2022-12-12T02:42:26.989Z,42.53
2022-12-12T02:45:35.094Z,41.50
2022-12-12T02:48:13.750Z,37.58
2022-12-12T02:50:41.966Z,38.10
2022-12-12T02:53:08.447Z,37.50
2022-12-12T02:55:36.611Z,37.70
2022-12-12T02:58:04.926Z,41.97
2022-12-12T03:00:40.579Z,38.08
2022-12-12T03:07:14.757Z,33.20
2022-12-12T03:10:02.125Z,35.38
2022-12-12T03:12:35.026Z,38.03
2022-12-12T03:15:10.314Z,37.97
2022-12-12T03:17:44.678Z,40.03
2022-12-12T03:20:29.389Z,39.08
2022-12-12T03:23:05.795Z,38.53
2022-12-12T03:25:47.261Z,37.85
2022-12-12T03:28:34.769Z,39.88
2022-12-12T03:31:06.491Z,37.45
2022-12-12T03:33:56.215Z,39.38
2022-12-12T03:36:27.218Z,34.58
2022-12-12T03:38:59.525Z,39.80
2022-12-12T03:41:36.954Z,37.70
2022-12-12T03:44:34.489Z,39.33
2022-12-12T03:47:11.343Z,37.60
2022-12-12T03:49:47.507Z,39.13
2022-12-12T03:52:39.864Z,40.15
2022-12-12T03:55:16.635Z,37.78
2022-12-12T03:57:57.607Z,36.63
2022-12-12T04:00:24.115Z,39.70
2022-12-12T04:03:00.879Z,38.85
2022-12-12T04:06:05.838Z,42.05
2022-12-12T04:08:34.254Z,35.80
2022-12-12T04:11:31.938Z,37.05
2022-12-12T04:14:41.603Z,40.30
2022-12-12T04:17:13.080Z,34.85
2022-12-12T04:20:14.302Z,38.78
2022-12-12T04:23:10.548Z,36.15
2022-12-12T04:26:11.861Z,36.03
2022-12-12T04:28:43.486Z,39.30
2022-12-12T04:31:13.012Z,32.45
2022-12-12T04:33:48.573Z,38.00
2022-12-12T04:36:18.446Z,34.28
2022-12-12T04:38:47.420Z,37.25
2022-12-12T04:41:17.063Z,31.98
2022-12-12T04:43:47.652Z,36.72
2022-12-12T04:46:18.142Z,37.53
2022-12-12T04:48:53.715Z,36.83
2022-12-12T04:54:13.801Z,35.22
2022-12-12T04:56:45.155Z,36.15
2022-12-12T04:59:11.860Z,39.95
2022-12-12T05:01:53.198Z,39.33
2022-12-12T05:04:55.714Z,40.13
2022-12-12T05:07:40.066Z,37.88
2022-12-12T05:10:12.594Z,37.90
2022-12-12T05:12:59.869Z,37.75
2022-12-12T05:15:28.926Z,40.13
2022-12-12T05:18:07.535Z,37.10
2022-12-12T05:20:34.439Z,39.00
2022-12-12T05:23:00.750Z,40.45
2022-12-12T05:25:27.140Z,40.20
2022-12-12T05:27:53.535Z,37.35
2022-12-12T05:30:20.040Z,40.38
2022-12-12T05:32:46.385Z,39.13
2022-12-12T05:35:12.936Z,42.00
2022-12-12T05:37:39.578Z,42.55
2022-12-12T05:40:08.844Z,40.08
2022-12-12T05:42:35.271Z,41.92
2022-12-12T05:45:01.947Z,37.47
2022-12-12T05:47:28.359Z,42.83
2022-12-12T05:49:54.679Z,46.97
2022-12-12T05:52:21.057Z,44.20
2022-12-12T05:54:47.517Z,41.33
2022-12-12T05:57:13.904Z,37.10
2022-12-12T05:59:40.304Z,43.78
2022-12-12T06:02:06.650Z,43.58
2022-12-12T06:04:33.100Z,38.47
2022-12-12T06:06:59.597Z,40.85
2022-12-12T06:09:25.937Z,41.58
2022-12-12T06:11:52.276Z,41.00
2022-12-12T06:14:18.622Z,42.80
2022-12-12T06:16:44.981Z,42.65
2022-12-12T06:19:11.353Z,40.30
2022-12-12T06:21:38.475Z,44.05
2022-12-12T06:24:06.326Z,48.92
2022-12-12T06:26:32.781Z,45.83
2022-12-12T06:28:59.379Z,42.45
2022-12-12T06:31:25.888Z,43.67
2022-12-12T06:33:52.308Z,43.60
2022-12-12T06:36:24.151Z,44.90
2022-12-12T06:38:52.375Z,42.20
2022-12-12T06:41:19.840Z,48.97
2022-12-12T06:46:19.037Z,44.45
2022-12-12T06:48:46.262Z,49.45
2022-12-12T06:51:29.268Z,52.58
2022-12-12T06:53:56.158Z,48.33
2022-12-12T06:56:24.305Z,48.53
2022-12-12T06:58:51.268Z,46.45
2022-12-12T07:01:21.921Z,46.65
2022-12-12T07:03:49.732Z,44.20
2022-12-12T07:06:17.595Z,44.75
2022-12-12T07:08:43.900Z,42.63
2022-12-12T07:11:20.306Z,40.72
2022-12-12T07:13:46.767Z,48.67
2022-12-12T07:16:13.413Z,41.13
2022-12-12T07:18:39.909Z,44.17
2022-12-12T07:21:08.242Z,43.13
2022-12-12T07:23:35.179Z,50.80
2022-12-12T07:26:12.204Z,43.67
2022-12-12T07:28:38.811Z,46.10
2022-12-12T07:31:07.635Z,44.10
2022-12-12T07:33:43.249Z,43.65
2022-12-12T07:36:12.143Z,50.58
2022-12-12T07:38:38.636Z,49.05
2022-12-12T07:41:11.461Z,47.90
2022-12-12T07:43:43.389Z,45.22
2022-12-12T07:46:14.389Z,44.85
2022-12-12T07:48:40.871Z,47.67
2022-12-12T07:51:07.203Z,41.15
2022-12-12T07:53:33.547Z,46.75
2022-12-12T07:55:59.900Z,47.55
2022-12-12T07:58:26.273Z,45.58
2022-12-12T08:00:52.740Z,44.25
2022-12-12T08:03:19.053Z,44.70
2022-12-12T08:05:45.436Z,50.17
2022-12-12T08:08:11.800Z,45.25
2022-12-12T08:10:39.583Z,49.38
2022-12-12T08:13:06.608Z,45.67
2022-12-12T08:15:33.099Z,47.15
2022-12-12T08:17:59.443Z,48.38
2022-12-12T08:20:25.831Z,48.00
2022-12-12T08:22:52.220Z,48.72
2022-12-12T08:25:18.561Z,52.67
2022-12-12T08:27:44.864Z,46.50
2022-12-12T08:30:11.857Z,47.05
2022-12-12T08:32:38.161Z,50.85
2022-12-12T08:35:05.678Z,44.78
2022-12-12T08:37:32.016Z,46.90
2022-12-12T08:39:58.328Z,42.40
2022-12-12T08:42:24.655Z,46.92
2022-12-12T08:44:51.107Z,46.30
2022-12-12T08:47:17.640Z,46.28
2022-12-12T08:49:44.040Z,48.97
2022-12-12T08:52:10.478Z,46.95
2022-12-12T08:54:38.062Z,46.28
2022-12-12T08:57:04.543Z,45.97
2022-12-12T08:59:30.878Z,47.67
2022-12-12T09:01:57.390Z,46.20
2022-12-12T09:04:23.793Z,46.35
2022-12-12T09:06:50.143Z,41.35
2022-12-12T09:09:16.481Z,44.08
2022-12-12T09:11:43.775Z,46.63
2022-12-12T09:14:10.956Z,41.80
2022-12-12T09:16:37.326Z,50.60
2022-12-12T09:19:03.706Z,42.08
2022-12-12T09:21:30.035Z,43.00
2022-12-12T09:23:56.349Z,48.63
2022-12-12T09:26:22.686Z,44.83
2022-12-12T09:28:49.262Z,48.50
2022-12-12T09:31:15.743Z,42.30
2022-12-12T09:33:43.148Z,49.00
2022-12-12T09:36:11.957Z,45.28
2022-12-12T09:38:38.451Z,40.58
2022-12-12T09:41:15.327Z,52.63
2022-12-12T09:43:57.382Z,46.15
2022-12-12T09:46:29.473Z,45.05
2022-12-12T09:49:03.248Z,38.78
2022-12-12T09:51:29.618Z,45.92
2022-12-12T09:53:56.127Z,44.30
2022-12-12T09:56:56.830Z,42.05
2022-12-12T09:59:40.050Z,41.60
2022-12-12T10:02:09.195Z,46.85
2022-12-12T10:04:47.804Z,46.10
2022-12-12T10:07:52.650Z,42.33
2022-12-12T10:10:36.461Z,42.78
2022-12-12T10:13:06.097Z,41.22
2022-12-12T10:15:38.671Z,38.85
2022-12-12T10:18:09.936Z,44.58
2022-12-12T10:20:45.394Z,50.45
2022-12-12T10:23:19.742Z,43.85
2022-12-12T10:25:55.902Z,42.60
2022-12-12T10:28:25.380Z,42.85
2022-12-12T10:31:23.022Z,46.85
2022-12-12T10:34:17.674Z,49.28
2022-12-12T10:37:17.070Z,44.25
2022-12-12T10:40:13.884Z,45.00
2022-12-12T10:42:55.238Z,40.17
2022-12-12T10:45:38.959Z,42.45
2022-12-12T10:48:05.538Z,44.63
2022-12-12T10:50:38.589Z,43.75
2022-12-12T10:53:09.699Z,46.05
2022-12-12T10:55:49.832Z,45.28
2022-12-12T10:58:19.728Z,40.85
2022-12-12T11:00:48.945Z,38.60
2022-12-12T11:03:29.298Z,45.65
2022-12-12T11:05:56.970Z,46.05
2022-12-12T11:08:31.101Z,45.67
2022-12-12T11:11:24.091Z,48.60
2022-12-12T11:13:50.380Z,47.63
2022-12-12T11:16:24.842Z,44.60
2022-12-12T11:19:02.369Z,43.47
2022-12-12T11:21:32.737Z,43.80
2022-12-12T11:24:00.252Z,44.55
2022-12-12T11:26:28.401Z,51.28
2022-12-12T11:29:01.284Z,42.75
2022-12-12T11:31:31.236Z,45.70
2022-12-12T11:34:01.621Z,44.08
2022-12-12T11:36:32.671Z,51.15
2022-12-12T11:39:01.535Z,44.47
2022-12-12T11:41:27.953Z,43.35
2022-12-12T11:43:59.803Z,46.85
2022-12-12T11:46:29.275Z,43.63
2022-12-12T11:48:59.387Z,47.55
2022-12-12T11:51:43.820Z,43.78
2022-12-12T11:54:22.743Z,39.38
2022-12-12T11:57:06.138Z,43.00
2022-12-12T11:59:32.371Z,40.55
2022-12-12T12:02:17.010Z,41.08
2022-12-12T12:04:58.683Z,45.75
2022-12-12T12:07:46.402Z,40.53
2022-12-12T12:10:50.376Z,50.53
2022-12-12T12:13:31.759Z,48.28
2022-12-12T12:16:46.607Z,45.95
2022-12-12T12:19:19.049Z,41.17
2022-12-12T12:22:10.910Z,40.90
2022-12-12T12:24:46.370Z,43.17
2022-12-12T12:27:49.258Z,41.88
2022-12-12T12:30:20.758Z,43.72
2022-12-12T12:33:20.233Z,43.08
2022-12-12T12:36:20.942Z,44.88
2022-12-12T12:39:19.301Z,44.17
2022-12-12T12:41:59.107Z,38.65
2022-12-12T12:44:44.146Z,44.88
2022-12-12T12:47:35.837Z,44.47
2022-12-12T12:50:14.239Z,40.38
2022-12-12T12:52:53.588Z,38.65
2022-12-12T12:55:24.566Z,43.65
2022-12-12T12:57:51.855Z,43.25
2022-12-12T13:00:20.727Z,44.85
2022-12-12T13:03:11.228Z,46.85
2022-12-12T13:05:45.943Z,45.40
2022-12-12T13:08:12.919Z,43.92
2022-12-12T13:10:45.612Z,40.70
2022-12-12T13:13:26.948Z,43.08
2022-12-12T13:16:13.999Z,41.00
2022-12-12T13:18:46.192Z,40.60
2022-12-12T13:21:33.117Z,44.15
2022-12-12T13:24:05.595Z,41.22
2022-12-12T13:26:41.807Z,47.83
2022-12-12T13:29:48.497Z,45.80
2022-12-12T13:32:22.726Z,42.60
2022-12-12T13:34:53.965Z,41.95
2022-12-12T13:37:23.699Z,44.53
2022-12-12T13:40:01.345Z,42.72
2022-12-12T13:42:52.470Z,45.03
2022-12-12T13:45:37.934Z,44.35
2022-12-12T13:48:10.989Z,45.83
2022-12-12T13:50:37.514Z,42.97
2022-12-12T13:53:06.590Z,46.28
2022-12-12T13:55:35.990Z,49.47
2022-12-12T13:58:02.722Z,46.63
2022-12-12T14:00:30.900Z,48.30
2022-12-12T14:03:09.489Z,44.53
2022-12-12T14:05:44.636Z,46.92
2022-12-12T14:08:10.915Z,46.80
2022-12-12T14:10:43.262Z,48.60
2022-12-12T14:13:18.632Z,44.05
2022-12-12T14:15:47.039Z,45.40
2022-12-12T14:18:27.157Z,45.05
2022-12-12T14:21:02.206Z,41.63
2022-12-12T14:23:51.100Z,42.85
2022-12-12T14:26:23.169Z,44.30
2022-12-12T14:29:18.172Z,42.80
2022-12-12T14:32:01.395Z,41.28
2022-12-12T14:34:53.026Z,43.20
2022-12-12T14:37:38.281Z,42.22
2022-12-12T14:40:19.656Z,44.57
2022-12-12T14:43:20.567Z,45.47
2022-12-12T14:45:40.191Z,45.83
2022-12-12T14:48:18.611Z,49.95
2022-12-12T14:50:49.754Z,42.30
2022-12-12T14:53:21.731Z,46.17
2022-12-12T14:55:53.327Z,47.75
2022-12-12T14:58:22.744Z,48.25
2022-12-12T15:00:52.821Z,48.30
2022-12-12T15:03:25.736Z,44.92
2022-12-12T15:06:24.043Z,46.95
2022-12-12T15:08:52.209Z,46.35
2022-12-12T15:11:25.962Z,46.22
2022-12-12T15:13:54.702Z,45.53
2022-12-12T15:16:36.035Z,50.25
2022-12-12T15:19:03.243Z,49.53
2022-12-12T15:21:33.011Z,44.47
2022-12-12T15:23:59.996Z,47.05
2022-12-12T15:26:32.955Z,45.90
2022-12-12T15:28:59.808Z,48.75
2022-12-12T15:31:26.247Z,46.83
2022-12-12T15:33:52.704Z,47.28
2022-12-12T15:36:28.163Z,44.60
2022-12-12T15:39:14.251Z,50.80
2022-12-12T15:41:41.871Z,48.22
2022-12-12T15:44:17.524Z,46.15
2022-12-12T15:49:37.605Z,42.47
2022-12-12T15:52:12.897Z,41.50
2022-12-12T15:54:45.974Z,38.83
2022-12-12T15:57:25.255Z,46.88
2022-12-12T15:59:55.991Z,42.13
2022-12-12T16:02:30.945Z,44.30
2022-12-12T16:05:03.025Z,46.40
2022-12-12T16:07:30.738Z,46.67
2022-12-12T16:10:02.770Z,45.80
2022-12-12T16:12:54.605Z,46.25
2022-12-12T16:15:29.342Z,45.35
2022-12-12T16:18:01.224Z,51.53
2022-12-12T16:20:30.635Z,49.92
2022-12-12T16:23:17.955Z,46.80
2022-12-12T16:25:44.303Z,45.42
2022-12-12T16:28:10.552Z,46.83
2022-12-12T16:30:38.444Z,54.63
2022-12-12T16:33:23.780Z,44.35
2022-12-12T16:35:50.669Z,46.65
2022-12-12T16:38:18.127Z,51.88
2022-12-12T16:40:47.367Z,45.35
2022-12-12T16:43:16.933Z,50.45
2022-12-12T16:45:43.935Z,44.28
2022-12-12T16:48:15.449Z,42.65
2022-12-12T16:50:42.202Z,41.83
2022-12-12T16:53:08.932Z,46.45
2022-12-12T16:55:37.498Z,47.72
2022-12-12T16:58:03.892Z,46.25
2022-12-12T17:00:30.240Z,48.10
2022-12-12T17:02:56.785Z,49.13
2022-12-12T17:05:26.088Z,50.22
2022-12-12T17:07:52.979Z,50.88
2022-12-12T17:10:21.428Z,49.22
2022-12-12T17:12:47.808Z,47.50
2022-12-12T17:15:19.699Z,48.13
2022-12-12T17:17:46.782Z,47.63
2022-12-12T17:20:14.127Z,52.08
2022-12-12T17:22:41.373Z,44.42
2022-12-12T17:25:08.418Z,52.35
2022-12-12T17:27:35.930Z,43.53
2022-12-12T17:30:02.553Z,50.20
2022-12-12T17:32:30.169Z,45.75
2022-12-12T17:34:56.878Z,50.33
2022-12-12T17:37:24.442Z,47.90
2022-12-12T17:39:50.921Z,43.50
2022-12-12T17:42:18.069Z,47.50
2022-12-12T17:44:44.715Z,46.65
2022-12-12T17:47:11.237Z,44.05
2022-12-12T17:49:37.664Z,48.30
2022-12-12T17:52:04.327Z,42.30
2022-12-12T17:54:30.627Z,47.35
2022-12-12T17:56:56.956Z,48.08
2022-12-12T17:59:23.299Z,43.70
2022-12-12T18:01:53.862Z,45.65
2022-12-12T18:04:27.411Z,47.15
2022-12-12T18:06:54.945Z,43.42
2022-12-12T18:09:21.336Z,45.08
2022-12-12T18:11:47.785Z,47.97
2022-12-12T18:14:15.876Z,47.03
2022-12-12T18:16:43.919Z,45.20
2022-12-12T18:19:10.906Z,42.80
2022-12-12T18:24:25.341Z,44.88
2022-12-12T18:26:53.584Z,46.13
2022-12-12T18:29:20.261Z,50.38
2022-12-12T18:31:46.610Z,48.20
2022-12-12T18:34:13.898Z,54.42
2022-12-12T18:36:40.333Z,43.97
2022-12-12T18:39:06.953Z,50.10
2022-12-12T18:41:36.587Z,41.42
2022-12-12T18:44:06.071Z,57.55
2022-12-12T18:46:40.329Z,53.47
2022-12-12T18:49:09.601Z,54.47
2022-12-12T18:51:36.438Z,50.00
2022-12-12T18:54:07.035Z,53.40
2022-12-12T18:56:37.805Z,50.00
2022-12-12T18:59:04.251Z,45.67
2022-12-12T19:01:34.371Z,52.25
2022-12-12T19:04:11.360Z,53.03
2022-12-12T19:06:40.041Z,51.55
2022-12-12T19:09:17.545Z,54.03
2022-12-12T19:11:44.594Z,52.08
2022-12-12T19:14:12.790Z,53.72
2022-12-12T19:16:39.251Z,51.67
2022-12-12T19:19:06.326Z,52.22
2022-12-12T19:21:34.849Z,56.53
2022-12-12T19:24:02.845Z,53.25
2022-12-12T19:26:30.205Z,54.90
2022-12-12T19:28:58.850Z,55.85
2022-12-12T19:31:25.850Z,55.58
2022-12-12T19:33:53.076Z,52.72
2022-12-12T19:36:24.816Z,51.15
2022-12-12T19:38:53.201Z,52.80
2022-12-12T19:41:21.720Z,55.60
2022-12-12T19:43:49.847Z,50.75
2022-12-12T19:46:19.180Z,59.50
2022-12-12T19:48:45.687Z,49.40
2022-12-12T19:51:17.677Z,50.45
2022-12-12T19:53:47.016Z,54.72
2022-12-12T19:56:15.661Z,53.45
2022-12-12T19:58:42.888Z,55.08
2022-12-12T20:01:15.189Z,54.78
2022-12-12T20:03:42.118Z,56.05
2022-12-12T20:06:10.721Z,49.60
2022-12-12T20:08:38.080Z,53.40
2022-12-12T20:11:05.804Z,60.00
2022-12-12T20:13:32.645Z,53.47
2022-12-12T20:16:09.838Z,51.17
2022-12-12T20:18:36.555Z,54.03
2022-12-12T20:21:03.532Z,56.78
2022-12-12T20:23:31.848Z,54.17
2022-12-12T20:25:58.227Z,54.55
2022-12-12T20:28:24.678Z,61.75
2022-12-12T20:30:53.528Z,53.95
2022-12-12T20:33:20.051Z,57.15
2022-12-12T20:35:46.394Z,55.05
2022-12-12T20:38:12.739Z,53.03
2022-12-12T20:40:40.267Z,49.75
2022-12-12T20:43:06.586Z,51.97
2022-12-12T20:45:36.340Z,50.58
2022-12-12T20:48:07.372Z,49.30
2022-12-12T20:50:34.197Z,51.00
2022-12-12T20:53:00.585Z,52.65
2022-12-12T20:55:27.047Z,51.95
2022-12-12T20:57:54.060Z,47.53
2022-12-12T21:00:20.610Z,53.10
2022-12-12T21:02:46.995Z,47.60
2022-12-12T21:05:13.683Z,49.08
2022-12-12T21:07:40.174Z,44.58
2022-12-12T21:10:06.782Z,46.20
2022-12-12T21:12:33.096Z,50.03
2022-12-12T21:15:02.699Z,50.92
2022-12-12T21:17:30.161Z,49.50
2022-12-12T21:19:59.454Z,53.05
2022-12-12T21:22:28.772Z,50.08
2022-12-12T21:24:55.098Z,44.15
2022-12-12T21:27:21.408Z,52.72
2022-12-12T21:29:47.936Z,49.40
2022-12-12T21:32:14.308Z,50.58
2022-12-12T21:34:41.510Z,46.08
2022-12-12T21:37:07.888Z,43.00
2022-12-12T21:39:34.496Z,48.42
2022-12-12T21:42:00.835Z,49.50
2022-12-12T21:44:27.298Z,53.65
2022-12-12T21:46:53.779Z,49.60
2022-12-12T21:49:25.821Z,51.03
2022-12-12T21:51:56.888Z,51.08
2022-12-12T21:54:23.832Z,47.95
2022-12-12T21:56:50.219Z,52.75
2022-12-12T21:59:16.571Z,46.67
2022-12-12T22:01:42.988Z,50.90
2022-12-12T22:04:11.771Z,48.20
2022-12-12T22:06:38.776Z,52.78
2022-12-12T22:09:08.461Z,45.10
2022-12-12T22:11:40.852Z,53.35
2022-12-12T22:14:09.845Z,51.80
2022-12-12T22:16:37.933Z,51.22
2022-12-12T22:19:09.997Z,53.95
2022-12-12T22:21:36.598Z,42.03
2022-12-12T22:24:03.498Z,49.35
2022-12-12T22:26:32.822Z,41.67
2022-12-12T22:29:01.824Z,48.85
2022-12-12T22:31:30.792Z,46.75
2022-12-12T22:34:00.202Z,45.22
2022-12-12T22:36:29.467Z,47.17
2022-12-12T22:38:57.955Z,43.88
2022-12-12T22:41:24.920Z,47.13
2022-12-12T22:43:56.221Z,45.05
2022-12-12T22:46:25.030Z,48.90
2022-12-12T22:48:52.910Z,54.15
2022-12-12T22:51:21.841Z,46.50
2022-12-12T22:53:48.315Z,51.03
2022-12-12T22:56:15.575Z,50.85
2022-12-12T22:58:42.590Z,48.92
2022-12-12T23:01:10.390Z,47.63
2022-12-12T23:03:37.183Z,51.28
2022-12-12T23:06:05.645Z,53.60
2022-12-12T23:08:32.312Z,52.35
2022-12-12T23:11:09.606Z,49.80
2022-12-12T23:13:36.036Z,46.53
2022-12-12T23:16:08.289Z,47.67
2022-12-12T23:18:37.256Z,45.20
2022-12-12T23:21:05.264Z,46.10
2022-12-12T23:23:31.828Z,49.78
2022-12-12T23:26:03.253Z,50.67
2022-12-12T23:28:30.053Z,47.60
2022-12-12T23:30:57.266Z,48.88
2022-12-12T23:33:24.197Z,41.53
2022-12-12T23:35:50.944Z,45.28
2022-12-12T23:38:17.368Z,49.72
2022-12-12T23:40:43.962Z,47.40
2022-12-12T23:43:10.371Z,46.33
2022-12-12T23:45:37.549Z,50.13
2022-12-12T23:48:05.434Z,50.83
2022-12-12T23:50:32.430Z,48.08
2022-12-12T23:52:59.708Z,43.63
2022-12-12T23:55:26.052Z,48.25
2022-12-12T23:57:52.390Z,49.92
